Time;durP1;ratioP1;P1;durP2;ratioP2;P2;SDS_P1;SDS_P2;PMS_P1;PMS_P2;Temp;Humidity;BMP_temperature;BMP_pressure;BME280_temperature;BME280_humidity;BME280_pressure;Samples;Min_cycle;Max_cycle;Signal;HPM_P1;HPM_P2
2023/07/14 00:01:31;;;;;;;29.57;19.20;;;;;;;16.61;98.48;100120.66;4219391;28;20234;-65
2023/07/14 00:03:58;;;;;;;29.67;19.30;;;;;;;16.63;98.63;100125.94;4227952;28;20293;-66
2023/07/14 00:06:25;;;;;;;30.27;18.50;;;;;;;16.58;99.03;100125.66;4256271;28;20472;-70
2023/07/14 00:08:52;;;;;;;40.43;20.37;;;;;;;16.50;99.14;100128.53;4238054;28;20277;-68
2023/07/14 00:11:21;;;;;;;27.27;19.73;;;;;;;16.47;99.64;100127.00;4256541;28;20343;-69
2023/07/14 00:13:49;;;;;;;36.30;19.83;;;;;;;16.52;99.64;100123.69;4239316;28;20222;-67
2023/07/14 00:16:18;;;;;;;28.03;18.43;;;;;;;16.55;99.24;100126.06;4243030;28;20526;-67
2023/07/14 00:18:46;;;;;;;23.13;15.67;;;;;;;16.51;99.21;100122.88;4224545;28;20226;-67
2023/07/14 00:21:16;;;;;;;25.80;17.43;;;;;;;16.48;99.09;100129.56;4237591;28;20235;-66
2023/07/14 00:23:43;;;;;;;35.00;21.90;;;;;;;16.43;99.23;100129.28;4249946;28;20294;-67
2023/07/14 00:26:19;;;;;;;28.77;18.00;;;;;;;16.44;99.17;100125.50;4226731;28;21962;-67
2023/07/14 00:28:48;;;;;;;28.03;17.70;;;;;;;16.44;99.01;100120.06;4234524;28;20233;-69
2023/07/14 00:31:19;;;;;;;30.53;18.23;;;;;;;16.44;99.07;100121.94;4236389;28;20240;-66
2023/07/14 00:33:49;;;;;;;26.93;17.90;;;;;;;16.48;98.61;100115.91;4241977;28;20242;-67
2023/07/14 00:36:19;;;;;;;27.63;18.00;;;;;;;16.40;98.35;100124.22;4222496;28;20240;-67
2023/07/14 00:38:46;;;;;;;27.17;17.10;;;;;;;16.38;98.51;100122.72;4228595;28;21598;-68
2023/07/14 00:41:20;;;;;;;32.70;17.40;;;;;;;16.32;98.59;100132.53;4240782;28;20229;-68
2023/07/14 00:43:46;;;;;;;30.53;20.43;;;;;;;16.25;99.10;100134.34;4242855;28;22012;-67
2023/07/14 00:46:23;;;;;;;29.07;18.50;;;;;;;16.22;99.37;100126.53;4220996;28;21165;-67
2023/07/14 00:48:52;;;;;;;34.37;20.67;;;;;;;16.21;99.23;100125.69;4223591;28;21116;-67
2023/07/14 00:51:19;;;;;;;36.73;20.90;;;;;;;16.09;100.00;100121.75;4223748;28;20257;-68
2023/07/14 00:53:46;;;;;;;32.93;21.33;;;;;;;16.02;100.00;100118.94;4234783;28;21818;-67
2023/07/14 00:56:13;;;;;;;32.50;21.00;;;;;;;16.00;100.00;100115.56;4232135;28;22810;-65
2023/07/14 00:58:41;;;;;;;29.17;20.47;;;;;;;16.05;100.00;100124.00;4230291;28;23592;-67
2023/07/14 01:01:10;;;;;;;38.97;20.97;;;;;;;16.06;100.00;100124.88;4239852;28;20226;-67
2023/07/14 01:03:40;;;;;;;32.23;22.07;;;;;;;16.06;100.00;100122.16;4245354;28;21267;-67
2023/07/14 01:06:12;;;;;;;36.30;22.83;;;;;;;15.95;100.00;100120.75;4240381;28;20622;-67
2023/07/14 01:08:56;;;;;;;35.50;22.87;;;;;;;16.02;100.00;100132.59;4229634;28;20598;-68
2023/07/14 01:11:43;;;;;;;38.00;23.70;;;;;;;15.98;100.00;100123.94;4232649;28;20289;-66
2023/07/14 01:14:18;;;;;;;36.93;23.67;;;;;;;15.99;100.00;100124.78;4232607;28;20247;-67
2023/07/14 01:16:46;;;;;;;33.33;21.90;;;;;;;16.07;100.00;100121.13;4242782;28;24296;-66
2023/07/14 01:19:26;;;;;;;33.70;23.20;;;;;;;16.12;100.00;100121.38;4238252;28;21004;-66
2023/07/14 01:22:19;;;;;;;37.67;23.20;;;;;;;16.15;100.00;100121.00;4238219;28;20239;-65
2023/07/14 01:25:00;;;;;;;36.77;21.83;;;;;;;16.24;99.96;100117.09;4234410;28;20262;-67
2023/07/14 01:27:27;;;;;;;33.47;21.43;;;;;;;16.31;99.41;100125.38;4236410;28;22583;-66
2023/07/14 01:29:54;;;;;;;30.87;21.80;;;;;;;16.47;98.15;100127.00;4239366;28;20548;-65
2023/07/14 01:32:23;;;;;;;33.47;21.40;;;;;;;16.46;97.54;100128.91;4237003;28;20623;-66
2023/07/14 01:34:50;;;;;;;31.67;20.53;;;;;;;16.44;97.55;100130.16;4260981;28;20364;-68
2023/07/14 01:37:19;;;;;;;34.27;19.83;;;;;;;16.28;97.86;100134.81;4249123;28;20232;-66
2023/07/14 01:39:47;;;;;;;30.13;19.53;;;;;;;16.19;98.72;100129.66;4240565;28;20969;-67
2023/07/14 01:42:13;;;;;;;31.17;18.83;;;;;;;16.20;98.71;100143.13;4234994;28;23890;-67
2023/07/14 01:44:43;;;;;;;29.30;19.43;;;;;;;16.21;98.59;100142.06;4217950;28;21788;-66
2023/07/14 01:47:11;;;;;;;30.53;19.97;;;;;;;16.15;98.91;100148.31;4244454;28;22326;-67
2023/07/14 01:49:43;;;;;;;30.23;18.30;;;;;;;16.10;99.05;100159.81;4234671;28;21563;-68
2023/07/14 01:52:13;;;;;;;36.07;20.93;;;;;;;16.05;98.66;100164.13;4249258;28;20399;-67
2023/07/14 01:54:48;;;;;;;27.97;19.17;;;;;;;16.13;97.98;100178.53;4235269;28;20227;-67
2023/07/14 01:57:17;;;;;;;25.87;17.60;;;;;;;16.14;97.48;100168.47;4258133;28;20343;-67
2023/07/14 01:59:47;;;;;;;25.00;17.87;;;;;;;16.08;97.40;100153.69;4239241;28;20699;-66
2023/07/14 02:02:21;;;;;;;32.00;20.47;;;;;;;15.99;97.76;100168.47;4237660;28;20238;-67
2023/07/14 02:04:49;;;;;;;28.17;19.27;;;;;;;15.92;97.95;100170.25;4233777;28;20246;-66
2023/07/14 02:07:17;;;;;;;33.97;22.03;;;;;;;15.74;98.83;100163.28;4228674;28;20500;-67
2023/07/14 02:09:44;;;;;;;28.70;19.50;;;;;;;15.69;99.26;100168.44;4222370;28;20271;-67
2023/07/14 02:12:16;;;;;;;30.60;20.50;;;;;;;15.72;99.44;100169.94;4239011;28;23430;-65
2023/07/14 02:14:47;;;;;;;26.80;19.37;;;;;;;15.75;99.05;100173.13;4234261;28;20242;-66
2023/07/14 02:17:34;;;;;;;30.63;21.27;;;;;;;15.68;99.27;100186.72;4231875;28;20376;-68
2023/07/14 02:20:06;;;;;;;36.63;20.67;;;;;;;15.62;99.13;100183.88;4240095;28;22880;-67
2023/07/14 02:22:33;;;;;;;32.70;20.03;;;;;;;15.77;98.66;100176.53;4224853;28;20239;-68
2023/07/14 02:25:03;;;;;;;25.43;18.37;;;;;;;15.82;98.24;100173.25;4219790;28;20311;-68
2023/07/14 02:27:29;;;;;;;34.50;20.17;;;;;;;15.69;98.50;100190.28;4235938;28;22332;-67
2023/07/14 02:30:20;;;;;;;33.47;20.67;;;;;;;15.51;99.21;100202.41;4233194;28;20308;-66
2023/07/14 02:32:51;;;;;;;31.00;20.23;;;;;;;15.63;98.99;100196.47;4222327;28;21440;-67
2023/07/14 02:35:30;;;;;;;35.27;22.20;;;;;;;15.62;98.65;100197.50;4234192;28;20298;-67
2023/07/14 02:38:03;;;;;;;27.53;18.70;;;;;;;15.69;98.56;100206.66;4229908;28;23345;-66
2023/07/14 02:40:38;;;;;;;27.43;17.83;;;;;;;15.75;98.36;100205.88;4247190;28;20323;-68
2023/07/14 02:43:09;;;;;;;29.20;19.00;;;;;;;15.74;97.80;100204.22;4224504;28;21584;-66
2023/07/14 02:45:59;;;;;;;28.67;18.60;;;;;;;16.01;96.36;100193.69;4248756;28;20232;-66
2023/07/14 02:48:33;;;;;;;26.90;16.80;;;;;;;16.06;95.38;100201.31;4242765;28;20227;-65
2023/07/14 02:51:00;;;;;;;27.13;18.30;;;;;;;15.91;95.17;100202.19;4263891;28;20323;-67
2023/07/14 02:53:26;;;;;;;24.93;16.60;;;;;;;16.00;95.06;100198.31;4260030;28;22446;-66
2023/07/14 02:55:53;;;;;;;29.07;15.97;;;;;;;15.97;95.19;100203.31;4247306;28;21780;-67
2023/07/14 02:58:20;;;;;;;22.00;15.73;;;;;;;15.82;95.10;100220.47;4256985;28;20304;-65
2023/07/14 03:00:47;;;;;;;24.23;15.47;;;;;;;15.82;94.40;100225.94;4259472;28;20250;-68
2023/07/14 03:03:13;;;;;;;22.67;15.77;;;;;;;15.53;95.52;100221.31;4229536;28;20230;-66
2023/07/14 03:05:40;;;;;;;23.47;16.03;;;;;;;15.45;96.26;100224.94;4258348;28;20238;-66
2023/07/14 03:08:14;;;;;;;21.13;14.73;;;;;;;15.49;96.28;100228.16;4245036;28;20976;-65
2023/07/14 03:10:43;;;;;;;22.70;16.03;;;;;;;15.62;95.88;100232.97;4256367;28;20342;-66
2023/07/14 03:13:10;;;;;;;21.33;15.43;;;;;;;15.64;94.77;100222.75;4236606;28;20324;-67
2023/07/14 03:15:37;;;;;;;23.93;14.77;;;;;;;15.87;94.07;100238.22;4228943;28;20272;-67
2023/07/14 03:18:04;;;;;;;21.23;14.03;;;;;;;15.72;93.01;100230.84;4259961;28;20293;-66
2023/07/14 03:20:31;;;;;;;20.67;13.50;;;;;;;15.62;93.62;100233.84;4242214;28;20238;-67
2023/07/14 03:22:58;;;;;;;18.87;12.37;;;;;;;15.69;92.79;100228.47;4212902;28;20231;-66
2023/07/14 03:25:26;;;;;;;25.73;13.07;;;;;;;15.73;91.36;100235.28;4241444;28;20235;-66
2023/07/14 03:27:53;;;;;;;15.10;11.73;;;;;;;15.82;91.48;100236.03;4237124;28;25554;-68
2023/07/14 03:30:20;;;;;;;19.57;11.87;;;;;;;15.90;90.98;100226.94;4241860;28;20526;-66
2023/07/14 03:32:46;;;;;;;20.27;11.63;;;;;;;16.00;90.25;100222.91;4233949;28;21497;-67
2023/07/14 03:35:13;;;;;;;19.03;11.40;;;;;;;16.15;88.58;100230.25;4259266;28;22178;-67
2023/07/14 03:37:41;;;;;;;19.27;11.03;;;;;;;16.13;87.65;100232.31;4233672;28;20289;-66
2023/07/14 03:40:08;;;;;;;21.60;11.33;;;;;;;16.06;88.46;100231.38;4234303;28;22544;-68
2023/07/14 03:42:38;;;;;;;15.17;10.53;;;;;;;16.19;87.81;100231.53;4244066;28;25572;-66
2023/07/14 03:45:06;;;;;;;15.77;10.13;;;;;;;16.34;87.48;100241.59;4230671;28;20238;-67
2023/07/14 03:47:33;;;;;;;19.27;10.40;;;;;;;16.22;87.05;100233.91;4260938;28;20242;-67
2023/07/14 03:49:59;;;;;;;21.13;11.50;;;;;;;16.10;87.27;100240.84;4276754;28;20311;-67
2023/07/14 03:52:26;;;;;;;21.73;11.43;;;;;;;15.90;88.67;100244.16;4255647;28;20843;-66
2023/07/14 03:54:52;;;;;;;20.70;11.67;;;;;;;15.68;89.89;100248.59;4230836;28;20231;-67
2023/07/14 03:57:19;;;;;;;17.37;10.57;;;;;;;15.77;89.03;100243.94;4255869;28;23089;-67
2023/07/14 03:59:46;;;;;;;20.07;10.73;;;;;;;15.73;89.52;100246.19;4252665;28;21841;-67
2023/07/14 04:02:13;;;;;;;18.63;11.37;;;;;;;15.67;89.52;100241.47;4236334;28;20303;-67
2023/07/14 04:04:40;;;;;;;22.17;12.33;;;;;;;15.62;90.07;100246.63;4232670;28;20231;-66
2023/07/14 04:07:07;;;;;;;19.67;11.27;;;;;;;15.55;90.15;100240.22;4237636;28;20455;-66
2023/07/14 04:09:33;;;;;;;21.33;11.73;;;;;;;15.50;90.90;100243.50;4234518;28;20235;-66
2023/07/14 04:12:00;;;;;;;23.43;11.77;;;;;;;15.59;90.94;100238.81;4256994;28;20226;-67
2023/07/14 04:14:27;;;;;;;22.37;12.23;;;;;;;15.60;90.47;100244.09;4235115;28;23202;-68
2023/07/14 04:16:53;;;;;;;23.83;11.10;;;;;;;15.73;89.76;100258.97;4244082;28;20245;-66
2023/07/14 04:19:20;;;;;;;17.93;11.13;;;;;;;15.86;89.00;100250.19;4235531;28;20704;-67
2023/07/14 04:21:47;;;;;;;23.93;11.03;;;;;;;15.91;88.44;100259.50;4246846;28;20235;-66
2023/07/14 04:24:13;;;;;;;18.93;10.43;;;;;;;15.92;87.92;100260.34;4233804;28;20313;-66
2023/07/14 04:26:40;;;;;;;19.53;10.27;;;;;;;15.76;88.73;100261.34;4237324;28;23024;-65
2023/07/14 04:29:10;;;;;;;20.17;10.20;;;;;;;15.86;87.81;100256.50;4236395;28;20232;-50
2023/07/14 04:31:38;;;;;;;18.10;10.03;;;;;;;15.81;88.23;100254.28;4234778;28;20599;-67
2023/07/14 04:34:05;;;;;;;14.93;9.97;;;;;;;15.77;88.32;100258.41;4247118;28;23002;-68
2023/07/14 04:36:32;;;;;;;17.63;10.67;;;;;;;15.99;88.00;100264.00;4240743;28;21256;-68
2023/07/14 04:39:02;;;;;;;23.03;10.53;;;;;;;16.07;87.47;100266.66;4237844;28;20234;-67
2023/07/14 04:41:28;;;;;;;19.73;9.43;;;;;;;16.19;86.59;100261.56;4237303;28;21179;-66
2023/07/14 04:43:55;;;;;;;17.87;10.30;;;;;;;16.15;87.12;100255.66;4242007;28;20268;-67
2023/07/14 04:46:22;;;;;;;16.33;9.43;;;;;;;16.30;86.87;100260.25;4261806;28;20870;-68
2023/07/14 04:48:50;;;;;;;20.23;10.13;;;;;;;16.35;86.64;100256.97;4230720;28;22243;-69
2023/07/14 04:51:17;;;;;;;17.83;9.43;;;;;;;16.50;86.68;100268.72;4244126;28;20240;-73
2023/07/14 04:53:44;;;;;;;18.67;9.30;;;;;;;16.75;84.94;100271.97;4241751;28;22223;-70
2023/07/14 04:56:11;;;;;;;16.03;9.03;;;;;;;17.06;84.43;100279.06;4258417;28;22683;-72
2023/07/14 04:58:38;;;;;;;14.47;9.63;;;;;;;17.15;83.16;100268.00;4255270;28;20235;-70
2023/07/14 05:01:05;;;;;;;14.77;8.30;;;;;;;17.09;83.13;100281.44;4254067;28;20403;-71
2023/07/14 05:03:32;;;;;;;16.17;9.33;;;;;;;17.01;83.18;100278.81;4257075;28;20235;-71
2023/07/14 05:05:58;;;;;;;14.90;8.83;;;;;;;17.05;83.00;100282.00;4250981;28;20256;-72
2023/07/14 05:08:25;;;;;;;16.80;9.03;;;;;;;17.14;82.76;100283.59;4239178;28;20622;-73
2023/07/14 05:10:52;;;;;;;19.70;9.40;;;;;;;16.86;83.91;100287.00;4219471;28;20610;-75
2023/07/14 05:13:19;;;;;;;25.73;10.23;;;;;;;16.65;85.27;100276.91;4234775;28;20231;-72
2023/07/14 05:15:46;;;;;;;19.43;10.33;;;;;;;16.90;84.35;100292.94;4254641;28;20230;-69
2023/07/14 05:18:14;;;;;;;17.13;9.17;;;;;;;16.86;84.23;100297.94;4244515;28;20492;-72
2023/07/14 05:20:41;;;;;;;20.47;10.03;;;;;;;16.91;84.54;100295.50;4247468;28;20888;-70
2023/07/14 05:23:10;;;;;;;19.47;10.30;;;;;;;16.92;84.17;100289.00;4243060;28;21793;-68
2023/07/14 05:25:37;;;;;;;23.10;10.47;;;;;;;16.85;85.17;100299.00;4255757;28;20389;-69
2023/07/14 05:28:04;;;;;;;23.57;10.70;;;;;;;17.08;84.14;100301.63;4280760;28;22266;-70
2023/07/14 05:30:32;;;;;;;15.97;9.37;;;;;;;16.90;84.80;100301.16;4270850;28;20522;-70
2023/07/14 05:32:59;;;;;;;20.70;10.30;;;;;;;17.35;83.41;100295.56;4264162;28;21168;-70
2023/07/14 05:35:26;;;;;;;19.63;9.43;;;;;;;17.88;80.69;100300.66;4302540;28;20879;-71
2023/07/14 05:37:53;;;;;;;26.00;9.10;;;;;;;18.61;77.66;100294.81;4286860;28;22161;-70
2023/07/14 05:40:20;;;;;;;17.53;8.50;;;;;;;19.07;74.64;100293.31;4254330;28;20249;-73
2023/07/14 05:42:47;;;;;;;13.23;8.30;;;;;;;19.19;74.85;100301.78;4245764;28;20236;-73
2023/07/14 05:45:14;;;;;;;20.70;8.67;;;;;;;19.48;72.92;100305.19;4238532;28;20284;-73
2023/07/14 05:47:46;;;;;;;16.70;7.97;;;;;;;19.45;73.36;100311.97;4244895;28;20303;-72
2023/07/14 05:50:14;;;;;;;10.93;6.40;;;;;;;20.78;68.58;100301.03;4218116;28;22360;-74
2023/07/14 05:52:41;;;;;;;14.00;7.27;;;;;;;20.57;68.23;100308.50;4227666;28;22215;-73
2023/07/14 05:55:08;;;;;;;15.50;7.63;;;;;;;20.72;68.37;100312.88;4241496;28;20361;-72
2023/07/14 05:57:38;;;;;;;14.77;7.07;;;;;;;20.54;68.60;100319.91;4254683;28;20261;-72
2023/07/14 06:00:12;;;;;;;14.17;7.20;;;;;;;21.72;64.60;100310.66;4244685;28;20451;-71
2023/07/14 06:02:41;;;;;;;13.10;6.97;;;;;;;22.71;60.80;100310.72;4234379;28;20241;-71
2023/07/14 06:05:08;;;;;;;18.37;7.13;;;;;;;21.57;64.14;100311.81;4246745;28;22879;-70
2023/07/14 06:07:35;;;;;;;16.60;6.83;;;;;;;21.99;63.81;100309.34;4223941;28;20312;-72
2023/07/14 06:10:02;;;;;;;16.33;6.63;;;;;;;23.52;59.56;100304.94;4233051;28;21585;-71
2023/07/14 06:12:29;;;;;;;16.50;6.80;;;;;;;24.92;55.62;100314.56;4245528;28;20310;-70
2023/07/14 06:14:56;;;;;;;13.17;6.23;;;;;;;26.34;51.22;100314.81;4265684;28;20339;-75
2023/07/14 06:17:24;;;;;;;12.40;6.20;;;;;;;25.58;51.73;100318.88;4268376;28;22085;-68
2023/07/14 06:19:51;;;;;;;15.20;6.53;;;;;;;24.74;54.34;100317.50;4239033;28;23026;-72
2023/07/14 06:22:20;;;;;;;14.50;6.28;;;;;;;24.36;56.39;100328.00;4249130;28;20257;-76
2023/07/14 06:24:51;;;;;;;14.13;6.05;;;;;;;24.55;55.00;100316.81;4253228;28;20242;-75
2023/07/14 06:27:17;;;;;;;11.48;6.07;;;;;;;24.15;56.52;100319.25;4230042;28;20291;-69
2023/07/14 06:29:45;;;;;;;13.25;6.40;;;;;;;24.48;56.04;100328.81;4226393;28;21377;-72
2023/07/14 06:32:15;;;;;;;11.35;6.35;;;;;;;24.53;55.66;100323.41;4229113;28;20754;-71
2023/07/14 06:34:43;;;;;;;22.35;6.88;;;;;;;25.28;53.80;100317.19;4244951;28;20279;-71
2023/07/14 06:37:09;;;;;;;12.43;6.20;;;;;;;25.33;53.37;100320.03;4240388;28;22935;-70
2023/07/14 06:39:37;;;;;;;13.25;6.40;;;;;;;25.63;53.74;100322.56;4240020;28;20242;-72
2023/07/14 06:42:04;;;;;;;14.95;5.50;;;;;;;25.29;55.01;100316.94;4243973;28;20478;-70
2023/07/14 06:44:31;;;;;;;15.52;4.80;;;;;;;27.13;48.63;100323.88;4239940;28;20238;-70
2023/07/14 06:46:58;;;;;;;15.65;5.10;;;;;;;26.83;50.21;100322.41;4241725;28;20240;-69
2023/07/14 06:49:25;;;;;;;9.98;5.00;;;;;;;25.98;51.62;100322.56;4246861;28;25509;-70
2023/07/14 06:51:54;;;;;;;11.48;4.90;;;;;;;26.08;52.39;100326.38;4284891;28;20413;-69
2023/07/14 06:54:21;;;;;;;12.18;5.40;;;;;;;26.29;51.00;100334.16;4238306;28;20791;-71
2023/07/14 06:56:48;;;;;;;8.38;3.80;;;;;;;26.50;48.54;100324.19;4282385;28;21183;-73
2023/07/14 06:59:14;;;;;;;13.63;3.40;;;;;;;26.01;49.64;100319.28;4220555;28;21605;-70
2023/07/14 07:01:41;;;;;;;7.60;3.15;;;;;;;26.45;48.74;100322.19;4242066;28;20225;-72
2023/07/14 07:04:08;;;;;;;7.40;3.35;;;;;;;27.24;45.32;100317.34;4236774;28;21717;-75
2023/07/14 07:06:35;;;;;;;10.77;3.25;;;;;;;26.44;47.95;100316.91;4281700;28;20251;-70
2023/07/14 07:09:02;;;;;;;6.32;3.10;;;;;;;26.74;47.48;100311.72;4273861;28;20611;-71
2023/07/14 07:11:32;;;;;;;7.57;3.20;;;;;;;28.19;44.23;100326.28;4249936;28;20235;-74
2023/07/14 07:13:59;;;;;;;6.85;3.55;;;;;;;28.33;44.56;100326.63;4281416;28;20550;-74
2023/07/14 07:16:26;;;;;;;5.23;3.03;;;;;;;27.05;46.33;100319.63;4259345;28;20232;-71
2023/07/14 07:18:55;;;;;;;10.82;3.60;;;;;;;27.79;44.08;100311.75;4241383;28;23553;-73
2023/07/14 07:21:22;;;;;;;7.90;3.30;;;;;;;29.05;41.79;100319.44;4258592;28;21778;-71
2023/07/14 07:23:49;;;;;;;5.25;3.40;;;;;;;28.30;43.11;100317.72;4283290;28;20239;-74
2023/07/14 07:26:15;;;;;;;8.75;3.55;;;;;;;27.41;45.88;100311.66;4269172;28;20223;-74
2023/07/14 07:28:42;;;;;;;10.90;3.55;;;;;;;28.16;44.09;100322.06;4244203;28;20230;-73
2023/07/14 07:31:10;;;;;;;6.05;2.80;;;;;;;27.47;45.42;100321.75;4233188;28;21183;-72
2023/07/14 07:33:38;;;;;;;9.70;3.20;;;;;;;26.61;47.36;100320.44;4264949;28;20473;-73
2023/07/14 07:36:14;;;;;;;6.25;3.33;;;;;;;26.62;48.10;100313.81;4260670;28;20928;-71
2023/07/14 07:38:46;;;;;;;7.03;3.30;;;;;;;25.46;49.90;100318.94;4276872;28;26666;-72
2023/07/14 07:41:17;;;;;;;9.68;3.13;;;;;;;24.99;50.88;100328.28;4271808;28;25864;-71
2023/07/14 07:43:44;;;;;;;9.80;3.40;;;;;;;25.55;49.74;100325.75;4286218;28;20236;-71
2023/07/14 07:46:12;;;;;;;4.75;3.03;;;;;;;25.45;50.53;100323.63;4256147;28;20226;-72
2023/07/14 07:48:40;;;;;;;7.03;3.17;;;;;;;26.23;49.64;100323.00;4263345;28;20230;-71
2023/07/14 07:51:07;;;;;;;8.57;3.47;;;;;;;25.55;50.99;100328.53;4269348;28;20353;-71
2023/07/14 07:53:34;;;;;;;8.25;3.72;;;;;;;25.86;49.89;100325.41;4250492;28;20425;-71
2023/07/14 07:56:01;;;;;;;4.43;2.87;;;;;;;25.02;50.07;100322.22;4253190;28;20285;-71
2023/07/14 07:58:29;;;;;;;6.87;3.10;;;;;;;25.54;49.60;100331.53;4257799;28;20234;-71
2023/07/14 08:00:59;;;;;;;6.15;2.65;;;;;;;25.78;48.63;100326.69;4264624;28;20237;-71
2023/07/14 08:03:26;;;;;;;7.17;2.57;;;;;;;24.75;51.90;100349.63;4251726;28;20234;-71
2023/07/14 08:06:01;;;;;;;6.20;3.00;;;;;;;24.81;52.34;100338.44;4254716;28;20294;-72
2023/07/14 08:08:29;;;;;;;8.47;3.13;;;;;;;24.29;52.53;100347.47;4292009;28;25649;-71
2023/07/14 08:10:55;;;;;;;4.67;3.10;;;;;;;24.73;52.37;100338.81;4264633;28;20226;-71
2023/07/14 08:13:25;;;;;;;6.03;2.80;;;;;;;24.53;52.19;100344.69;4304942;28;20232;-71
2023/07/14 08:15:53;;;;;;;6.90;3.03;;;;;;;24.07;53.57;100344.50;4243424;28;20243;-72
2023/07/14 08:18:22;;;;;;;11.93;3.10;;;;;;;24.22;53.47;100346.75;4239431;28;23025;-72
2023/07/14 08:20:51;;;;;;;5.50;2.60;;;;;;;24.70;50.82;100344.81;4243932;28;22180;-72
2023/07/14 08:23:20;;;;;;;5.07;2.70;;;;;;;24.67;51.83;100342.56;4260251;28;21974;-71
2023/07/14 08:25:56;;;;;;;8.37;2.30;;;;;;;24.52;51.29;100348.53;4240978;28;20254;-70
2023/07/14 08:28:23;;;;;;;6.97;2.60;;;;;;;25.19;49.26;100351.91;4248973;28;20481;-72
2023/07/14 08:30:55;;;;;;;5.47;2.30;;;;;;;24.99;49.07;100350.44;4297718;28;21191;-77
2023/07/14 08:33:23;;;;;;;3.47;2.20;;;;;;;25.03;48.49;100351.59;4278885;28;21251;-72
2023/07/14 08:35:52;;;;;;;5.40;2.43;;;;;;;25.52;46.91;100347.59;4238709;28;20970;-73
2023/07/14 08:38:19;;;;;;;3.80;2.00;;;;;;;24.96;49.29;100350.91;4247896;28;20279;-71
2023/07/14 08:40:55;;;;;;;5.23;1.93;;;;;;;24.64;49.61;100349.41;4248526;28;20583;-71
2023/07/14 08:43:32;;;;;;;4.50;1.90;;;;;;;24.51;49.19;100349.63;4259047;28;20234;-71
2023/07/14 08:46:26;;;;;;;15.57;2.40;;;;;;;24.80;48.24;100352.53;4272198;28;25444;-72
2023/07/14 08:49:03;;;;;;;8.18;2.35;;;;;;;24.44;47.68;100358.06;4249180;28;20827;-71
2023/07/14 08:51:44;;;;;;;4.93;2.30;;;;;;;24.40;48.66;100356.03;4233019;28;21009;-72
2023/07/14 08:54:16;;;;;;;16.40;2.30;;;;;;;24.24;50.53;100360.38;4270838;28;20254;-73
2023/07/14 08:56:43;;;;;;;7.80;2.30;;;;;;;24.88;48.34;100356.81;4251208;28;24767;-71
2023/07/14 08:59:26;;;;;;;5.13;1.80;;;;;;;24.95;48.28;100346.44;4259175;28;20665;-74
2023/07/14 09:01:54;;;;;;;5.20;1.80;;;;;;;24.71;47.02;100351.22;4275696;28;20375;-71
2023/07/14 09:04:26;;;;;;;3.43;1.67;;;;;;;24.24;45.42;100350.13;4262825;28;26212;-71
2023/07/14 09:06:53;;;;;;;3.63;1.73;;;;;;;24.16;45.97;100351.34;4262838;28;20235;-71
2023/07/14 09:09:27;;;;;;;3.37;1.50;;;;;;;24.07;45.14;100358.31;4267665;28;21977;-71
2023/07/14 09:12:25;;;;;;;5.03;1.70;;;;;;;24.32;44.75;100371.09;4255630;28;20242;-71
2023/07/14 09:15:08;;;;;;;4.60;1.50;;;;;;;24.81;44.59;100357.81;4262013;28;20234;-71
2023/07/14 09:17:53;;;;;;;6.70;1.70;;;;;;;25.18;44.73;100364.06;4224652;28;21916;-70
2023/07/14 09:20:54;;;;;;;6.40;2.00;;;;;;;24.42;45.12;100359.41;4252215;28;20239;-71
2023/07/14 09:23:41;;;;;;;7.60;2.20;;;;;;;23.79;46.87;100372.78;4265949;28;20234;-69
2023/07/14 09:26:36;;;;;;;3.57;1.80;;;;;;;23.67;46.37;100364.47;4228922;28;20230;-71
2023/07/14 09:29:18;;;;;;;4.07;1.83;;;;;;;23.72;47.13;100361.81;4255448;28;21101;-72
2023/07/14 09:31:56;;;;;;;7.83;1.97;;;;;;;23.80;46.51;100355.13;4235924;28;20234;-71
2023/07/14 09:34:33;;;;;;;6.30;1.87;;;;;;;24.02;46.59;100369.22;4227355;28;20238;-71
2023/07/14 09:37:00;;;;;;;2.50;1.70;;;;;;;24.06;45.26;100364.91;4241018;28;20345;-72
2023/07/14 09:39:41;;;;;;;6.07;2.13;;;;;;;24.02;43.66;100359.03;4227403;28;20654;-73
2023/07/14 09:42:32;;;;;;;4.33;1.70;;;;;;;23.99;42.21;100347.59;4232125;28;20298;-71
2023/07/14 09:45:10;;;;;;;4.67;1.40;;;;;;;24.32;40.26;100351.72;4252125;28;21478;-71
2023/07/14 09:47:36;;;;;;;4.10;1.40;;;;;;;24.62;40.44;100351.56;4235997;28;20245;-71
2023/07/14 09:50:04;;;;;;;4.27;1.63;;;;;;;24.44;41.08;100349.78;4251882;28;20406;-71
2023/07/14 09:52:30;;;;;;;7.23;1.70;;;;;;;24.24;42.85;100349.31;4254423;28;23346;-71
2023/07/14 09:54:59;;;;;;;3.77;1.70;;;;;;;24.52;43.34;100352.19;4241057;28;21082;-70
2023/07/14 09:57:34;;;;;;;2.10;1.30;;;;;;;24.50;41.70;100348.81;4245045;28;21112;-73
2023/07/14 10:00:16;;;;;;;6.93;1.70;;;;;;;24.66;43.68;100349.13;4249600;28;20776;-73
2023/07/14 10:02:42;;;;;;;6.93;2.00;;;;;;;24.15;44.59;100337.75;4245697;28;20479;-70
2023/07/14 10:05:48;;;;;;;3.10;1.47;;;;;;;24.45;44.68;100339.53;4244779;28;20226;-70
2023/07/14 10:08:25;;;;;;;4.70;1.77;;;;;;;24.54;43.48;100343.63;4235875;28;23599;-71
2023/07/14 10:10:55;;;;;;;7.17;1.70;;;;;;;24.29;43.40;100341.94;4267532;28;21947;-72
2023/07/14 10:13:27;;;;;;;3.87;1.47;;;;;;;24.19;42.66;100338.97;4218593;28;20243;-72
2023/07/14 10:16:07;;;;;;;12.00;1.83;;;;;;;24.00;42.73;100332.72;4234171;28;20252;-73
2023/07/14 10:18:54;;;;;;;3.60;1.40;;;;;;;24.37;42.80;100322.22;4242499;28;22900;-73
2023/07/14 10:21:25;;;;;;;7.37;1.40;;;;;;;24.64;41.75;100329.16;4263769;28;20231;-75
2023/07/14 10:23:58;;;;;;;5.33;1.40;;;;;;;24.30;42.85;100346.41;4251597;28;21253;-74
2023/07/14 10:26:32;;;;;;;1.63;1.10;;;;;;;24.16;42.75;100332.00;4243030;28;20231;-73
2023/07/14 10:28:59;;;;;;;4.60;1.87;;;;;;;24.58;41.56;100325.47;4242915;28;23580;-74
2023/07/14 10:31:33;;;;;;;6.33;1.10;;;;;;;24.09;40.55;100335.94;4246340;28;20253;-75
2023/07/14 10:34:25;;;;;;;2.80;1.37;;;;;;;24.23;40.75;100334.63;4255298;28;20244;-69
2023/07/14 10:36:55;;;;;;;1.17;0.90;;;;;;;24.16;40.71;100331.13;4232460;28;20243;-72
2023/07/14 10:39:31;;;;;;;5.23;1.17;;;;;;;24.23;41.01;100326.31;4245563;28;20239;-71
2023/07/14 10:41:59;;;;;;;1.50;1.00;;;;;;;24.34;40.80;100322.72;4230895;28;20261;-73
2023/07/14 10:44:30;;;;;;;4.57;1.35;;;;;;;24.63;42.09;100317.25;4240062;28;20240;-71
2023/07/14 10:47:02;;;;;;;3.43;1.60;;;;;;;24.57;41.47;100309.94;4256264;28;20611;-74
2023/07/14 10:49:35;;;;;;;9.90;1.77;;;;;;;24.89;39.92;100317.81;4258632;28;20236;-76
2023/07/14 10:52:17;;;;;;;6.00;1.70;;;;;;;24.81;39.80;100307.97;4239003;28;21974;-71
2023/07/14 10:54:53;;;;;;;7.83;1.30;;;;;;;25.06;38.97;100300.41;4238440;28;21491;-72
2023/07/14 10:57:34;;;;;;;4.43;1.30;;;;;;;24.97;38.61;100316.59;4279786;28;20237;-80
2023/07/14 11:00:19;;;;;;;9.30;1.57;;;;;;;24.87;39.77;100308.06;4275550;28;21854;-72
2023/07/14 11:03:23;;;;;;;3.23;1.17;;;;;;;24.61;39.48;100315.81;4255817;28;20322;-70
2023/07/14 11:06:12;;;;;;;5.20;1.30;;;;;;;24.55;39.85;100308.50;4280424;28;22926;-71
2023/07/14 11:08:39;;;;;;;3.00;1.23;;;;;;;24.84;38.57;100303.88;4270150;28;20573;-70
2023/07/14 11:11:39;;;;;;;2.80;1.10;;;;;;;25.29;38.01;100294.75;4269951;28;20279;-73
2023/07/14 11:14:21;;;;;;;7.83;1.20;;;;;;;25.31;38.32;100302.81;4277270;28;20840;-70
2023/07/14 11:17:06;;;;;;;4.03;1.23;;;;;;;25.39;37.32;100293.31;4271238;28;20230;-72
2023/07/14 11:19:46;;;;;;;5.13;1.23;;;;;;;24.96;38.43;100309.38;4265660;28;20235;-71
2023/07/14 11:22:16;;;;;;;6.00;1.10;;;;;;;24.76;38.84;100302.34;4228347;28;22873;-68
2023/07/14 11:25:05;;;;;;;1.70;1.07;;;;;;;24.66;39.97;100302.94;4242242;28;20231;-69
2023/07/14 11:27:45;;;;;;;3.53;1.20;;;;;;;24.81;39.86;100299.66;4276570;28;20306;-71
2023/07/14 11:30:20;;;;;;;2.83;1.30;;;;;;;24.93;40.37;100296.88;4240953;28;20381;-72
2023/07/14 11:33:12;;;;;;;4.55;1.70;;;;;;;25.32;38.25;100304.50;4226158;28;21097;-70
2023/07/14 11:36:03;;;;;;;3.20;1.10;;;;;;;25.03;39.42;100300.94;4253425;28;20247;-71